createdAt,value
2018-02-24T00:00:06.118Z,21.25
2018-02-24T00:02:32.482Z,19.73
2018-02-24T00:04:59.110Z,20.60
2018-02-24T00:07:25.241Z,21.37
2018-02-24T00:09:51.413Z,19.62
2018-02-24T00:12:17.602Z,20.42
2018-02-24T00:14:43.831Z,20.62
2018-02-24T00:17:09.993Z,19.15
2018-02-24T00:19:36.178Z,19.10
2018-02-24T00:22:02.315Z,20.08
2018-02-24T00:24:29.282Z,21.20
2018-02-24T00:26:55.379Z,22.13
2018-02-24T00:29:23.325Z,18.90
2018-02-24T00:31:51.234Z,18.48
2018-02-24T00:34:18.116Z,18.90
2018-02-24T00:36:44.282Z,20.58
2018-02-24T00:39:10.471Z,19.70
2018-02-24T00:41:37.993Z,20.08
2018-02-24T00:44:04.267Z,20.92
2018-02-24T00:46:31.117Z,21.52
2018-02-24T00:48:57.928Z,21.70
2018-02-24T00:51:24.213Z,19.95
2018-02-24T00:53:50.397Z,20.98
2018-02-24T00:56:16.512Z,19.02
2018-02-24T00:58:43.667Z,19.17
2018-02-24T01:01:11.074Z,19.55
2018-02-24T01:03:37.175Z,18.50
2018-02-24T01:06:03.296Z,18.05
2018-02-24T01:08:29.446Z,19.90
2018-02-24T01:10:56.370Z,19.87
2018-02-24T01:13:22.545Z,19.40
2018-02-24T01:15:49.442Z,19.98
2018-02-24T01:18:16.692Z,18.90
2018-02-24T01:20:43.236Z,17.80
2018-02-24T01:23:09.751Z,19.92
2018-02-24T01:25:35.900Z,19.25
2018-02-24T01:28:02.019Z,19.92
2018-02-24T01:30:28.146Z,19.40
2018-02-24T01:32:55.190Z,19.80
2018-02-24T01:35:21.400Z,19.30
2018-02-24T01:37:47.646Z,19.27
2018-02-24T01:40:13.862Z,20.48
2018-02-24T01:42:41.574Z,19.08
2018-02-24T01:45:07.792Z,18.90
2018-02-24T01:47:34.096Z,18.42
2018-02-24T01:50:00.941Z,20.48
2018-02-24T01:52:28.191Z,19.77
2018-02-24T01:54:55.236Z,18.10
2018-02-24T01:57:22.189Z,19.02
2018-02-24T01:59:48.369Z,19.45
2018-02-24T02:02:15.109Z,19.00
2018-02-24T02:04:41.246Z,19.95
2018-02-24T02:07:07.408Z,20.10
2018-02-24T02:09:33.495Z,20.67
2018-02-24T02:12:00.055Z,19.62
2018-02-24T02:14:26.919Z,19.90
2018-02-24T02:16:53.076Z,20.15
2018-02-24T02:19:19.719Z,18.98
2018-02-24T02:21:45.823Z,19.15
2018-02-24T02:24:11.914Z,19.37
2018-02-24T02:26:38.036Z,19.37
2018-02-24T02:29:04.160Z,18.77
2018-02-24T02:31:30.295Z,19.58
2018-02-24T02:33:57.260Z,19.25
2018-02-24T02:36:23.321Z,19.87
2018-02-24T02:38:50.431Z,19.02
2018-02-24T02:41:16.549Z,17.48
2018-02-24T02:43:42.666Z,19.15
2018-02-24T02:46:08.790Z,18.08
2018-02-24T02:48:35.376Z,20.73
2018-02-24T02:51:01.556Z,21.60
2018-02-24T02:53:28.492Z,19.42
2018-02-24T02:55:54.732Z,18.98
2018-02-24T02:58:21.723Z,18.95
2018-02-24T03:00:51.045Z,19.30
2018-02-24T03:03:17.916Z,19.87
2018-02-24T03:05:44.457Z,20.52
2018-02-24T03:08:10.581Z,20.08
2018-02-24T03:10:37.639Z,18.48
2018-02-24T03:13:03.751Z,18.15
2018-02-24T03:15:30.842Z,18.48
2018-02-24T03:17:57.028Z,19.55
2018-02-24T03:20:24.083Z,21.50
2018-02-24T03:22:50.680Z,20.02
2018-02-24T03:25:17.249Z,18.98
2018-02-24T03:27:43.319Z,18.08
2018-02-24T03:30:09.454Z,18.55
2018-02-24T03:32:35.622Z,18.90
2018-02-24T03:35:01.736Z,18.55
2018-02-24T03:37:28.436Z,19.33
2018-02-24T03:39:54.518Z,19.67
2018-02-24T03:42:20.651Z,17.92
2018-02-24T03:44:47.368Z,19.92
2018-02-24T03:47:14.332Z,21.12
2018-02-24T03:49:40.514Z,19.08
2018-02-24T03:52:06.668Z,20.00
2018-02-24T03:54:33.835Z,19.48
2018-02-24T03:57:00.371Z,20.02
2018-02-24T03:59:27.894Z,19.87
2018-02-24T04:01:55.095Z,20.33
2018-02-24T04:04:22.064Z,18.85
2018-02-24T04:06:48.970Z,19.62
2018-02-24T04:09:16.672Z,18.17
2018-02-24T04:11:43.548Z,19.35
2018-02-24T04:14:09.687Z,20.48
2018-02-24T04:16:36.051Z,20.77
2018-02-24T04:19:02.255Z,18.52
2018-02-24T04:21:29.007Z,20.85
2018-02-24T04:23:55.175Z,18.90
2018-02-24T04:26:21.320Z,20.35
2018-02-24T04:28:47.456Z,18.90
2018-02-24T04:31:15.094Z,19.87
2018-02-24T04:33:41.258Z,20.55
2018-02-24T04:36:07.400Z,20.70
2018-02-24T04:38:34.764Z,19.98
2018-02-24T04:41:01.946Z,20.77
2018-02-24T04:43:28.580Z,19.35
2018-02-24T04:45:54.693Z,19.65
2018-02-24T04:48:21.583Z,17.52
2018-02-24T04:50:47.644Z,20.10
2018-02-24T04:53:14.206Z,20.85
2018-02-24T04:55:40.273Z,20.25
2018-02-24T04:58:07.129Z,21.42
2018-02-24T05:00:33.496Z,20.25
2018-02-24T05:02:59.709Z,22.45
2018-02-24T05:05:25.796Z,21.70
2018-02-24T05:07:51.834Z,21.67
2018-02-24T05:10:18.033Z,21.23
2018-02-24T05:12:44.186Z,21.25
2018-02-24T05:15:10.952Z,22.27
2018-02-24T05:17:37.757Z,21.83
2018-02-24T05:20:03.924Z,22.65
2018-02-24T05:22:30.106Z,20.85
2018-02-24T05:24:56.282Z,22.27
2018-02-24T05:27:23.560Z,21.10
2018-02-24T05:29:49.716Z,22.25
2018-02-24T05:32:15.935Z,21.95
2018-02-24T05:34:42.071Z,24.63
2018-02-24T05:37:08.177Z,24.30
2018-02-24T05:39:34.325Z,23.20
2018-02-24T05:42:00.528Z,23.40
2018-02-24T05:44:26.680Z,22.05
2018-02-24T05:46:52.775Z,22.62
2018-02-24T05:49:18.997Z,22.92
2018-02-24T05:51:45.132Z,23.08
2018-02-24T05:54:12.164Z,22.08
2018-02-24T05:56:39.052Z,23.15
2018-02-24T05:59:05.882Z,21.62
2018-02-24T06:01:32.729Z,23.40
2018-02-24T06:03:58.773Z,19.73
2018-02-24T06:06:25.664Z,21.83
2018-02-24T06:08:52.612Z,23.17
2018-02-24T06:11:19.511Z,24.27
2018-02-24T06:13:45.992Z,21.60
2018-02-24T06:16:12.318Z,24.67
2018-02-24T06:18:38.540Z,22.25
2018-02-24T06:21:06.124Z,23.67
2018-02-24T06:23:32.413Z,23.73
2018-02-24T06:25:58.533Z,23.27
2018-02-24T06:28:25.565Z,24.15
2018-02-24T06:30:52.742Z,22.13
2018-02-24T06:33:18.864Z,20.92
2018-02-24T06:35:45.774Z,21.17
2018-02-24T06:38:12.282Z,20.98
2018-02-24T06:40:38.460Z,22.80
2018-02-24T06:43:04.596Z,24.73
2018-02-24T06:45:30.724Z,22.33
2018-02-24T06:47:56.881Z,21.30
2018-02-24T06:50:23.005Z,23.42
2018-02-24T06:52:49.174Z,21.50
2018-02-24T06:55:15.258Z,22.80
2018-02-24T06:57:41.790Z,21.92
2018-02-24T07:00:08.020Z,21.90
2018-02-24T07:02:34.200Z,22.90
2018-02-24T07:05:00.366Z,24.00
2018-02-24T07:07:27.258Z,23.58
2018-02-24T07:09:54.098Z,22.20
2018-02-24T07:12:20.250Z,21.25
2018-02-24T07:14:47.578Z,21.23
2018-02-24T07:17:14.136Z,22.20
2018-02-24T07:19:40.721Z,23.10
2018-02-24T07:22:07.559Z,20.77
2018-02-24T07:24:33.695Z,21.37
2018-02-24T07:26:59.910Z,23.25
2018-02-24T07:29:26.029Z,23.90
2018-02-24T07:31:52.573Z,25.25
2018-02-24T07:34:18.807Z,20.65
2018-02-24T07:36:45.721Z,22.40
2018-02-24T07:39:11.927Z,24.98
2018-02-24T07:41:38.912Z,23.73
2018-02-24T07:44:05.152Z,21.87
2018-02-24T07:46:32.092Z,22.17
2018-02-24T07:48:59.417Z,20.60
2018-02-24T07:51:27.081Z,21.10
2018-02-24T07:53:54.033Z,21.80
2018-02-24T07:56:20.214Z,19.95
2018-02-24T07:58:46.250Z,23.15
2018-02-24T08:01:12.388Z,19.42
2018-02-24T08:03:38.516Z,21.80
2018-02-24T08:06:04.543Z,22.00
2018-02-24T08:08:30.671Z,23.05
2018-02-24T08:10:56.844Z,19.02
2018-02-24T08:13:22.982Z,21.15
2018-02-24T08:15:49.603Z,22.10
2018-02-24T08:18:19.808Z,20.48
2018-02-24T08:20:46.002Z,22.23
2018-02-24T08:23:12.850Z,21.08
2018-02-24T08:25:39.989Z,20.08
2018-02-24T08:28:07.698Z,20.00
2018-02-24T08:30:34.083Z,20.02
2018-02-24T08:33:00.404Z,22.25
2018-02-24T08:35:26.495Z,19.37
2018-02-24T08:37:53.146Z,20.85
2018-02-24T08:40:19.444Z,20.00
2018-02-24T08:42:45.640Z,18.77
2018-02-24T08:45:12.380Z,20.65
2018-02-24T08:47:38.649Z,19.45
2018-02-24T08:50:04.876Z,19.25
2018-02-24T08:52:31.112Z,19.30
2018-02-24T08:54:57.254Z,19.10
2018-02-24T08:57:31.323Z,18.00
2018-02-24T08:59:57.968Z,18.85
2018-02-24T09:02:24.242Z,17.87
2018-02-24T09:04:51.376Z,18.12
2018-02-24T09:07:17.466Z,16.52
2018-02-24T09:09:43.516Z,16.35
2018-02-24T09:12:10.638Z,18.55
2018-02-24T09:14:37.178Z,17.75
2018-02-24T09:17:03.317Z,16.27
2018-02-24T09:19:29.479Z,16.33
2018-02-24T09:21:57.701Z,17.85
2018-02-24T09:24:23.945Z,15.10
2018-02-24T09:26:50.807Z,16.08
2018-02-24T09:29:17.134Z,14.45
2018-02-24T09:31:43.578Z,14.25
2018-02-24T09:34:10.423Z,12.60
2018-02-24T09:36:37.542Z,12.65
2018-02-24T09:39:03.658Z,11.02
2018-02-24T09:41:29.780Z,15.20
2018-02-24T09:43:55.895Z,12.70
2018-02-24T09:46:22.224Z,12.37
2018-02-24T09:48:48.808Z,13.70
2018-02-24T09:51:14.893Z,12.30
2018-02-24T09:53:41.170Z,14.55
2018-02-24T09:56:07.355Z,12.27
2018-02-24T09:58:33.506Z,13.27
2018-02-24T10:01:01.468Z,12.25
2018-02-24T10:03:27.908Z,14.73
2018-02-24T10:05:55.130Z,12.82
2018-02-24T10:08:21.601Z,11.70
2018-02-24T10:10:48.142Z,13.62
2018-02-24T10:13:14.371Z,9.80
2018-02-24T10:15:40.587Z,7.15
2018-02-24T10:18:08.596Z,6.10
2018-02-24T10:20:35.409Z,6.15
2018-02-24T10:23:01.627Z,6.35
2018-02-24T10:25:28.256Z,7.00
2018-02-24T10:27:54.594Z,6.80
2018-02-24T10:30:21.499Z,6.43
2018-02-24T10:32:48.085Z,6.75
2018-02-24T10:35:14.323Z,6.35
2018-02-24T10:37:41.981Z,6.37
2018-02-24T10:40:15.281Z,6.80
2018-02-24T10:42:41.450Z,7.87
2018-02-24T10:45:08.282Z,9.00
2018-02-24T10:47:36.267Z,7.43
2018-02-24T10:50:03.164Z,8.32
2018-02-24T10:52:30.115Z,7.75
2018-02-24T10:57:30.854Z,8.20
2018-02-24T10:59:57.096Z,8.80
2018-02-24T11:02:23.488Z,6.93
2018-02-24T11:04:51.403Z,7.80
2018-02-24T11:07:18.821Z,7.72
2018-02-24T11:09:46.602Z,7.50
2018-02-24T11:12:13.834Z,7.53
2018-02-24T11:14:41.321Z,7.45
2018-02-24T11:17:08.211Z,7.47
2018-02-24T11:19:34.445Z,7.47
2018-02-24T11:22:00.905Z,7.30
2018-02-24T11:24:27.040Z,8.15
2018-02-24T11:26:53.186Z,7.12
2018-02-24T11:29:20.066Z,8.05
2018-02-24T11:31:46.282Z,8.23
2018-02-24T11:34:13.327Z,6.53
2018-02-24T11:36:39.547Z,8.23
2018-02-24T11:39:06.548Z,7.50
2018-02-24T11:41:32.699Z,7.22
2018-02-24T11:43:58.875Z,6.87
2018-02-24T11:46:25.120Z,7.80
2018-02-24T11:48:52.694Z,7.45
2018-02-24T11:51:19.188Z,7.45
2018-02-24T11:53:45.410Z,7.70
2018-02-24T11:56:11.992Z,7.50
2018-02-24T11:58:39.205Z,7.87
2018-02-24T12:01:05.675Z,8.10
2018-02-24T12:03:32.826Z,9.53
2018-02-24T12:05:58.954Z,8.37
2018-02-24T12:08:26.097Z,7.40
2018-02-24T12:10:54.228Z,9.40
2018-02-24T12:13:20.423Z,9.20
2018-02-24T12:15:47.631Z,8.57
2018-02-24T12:18:13.882Z,9.60
2018-02-24T12:20:40.245Z,9.77
2018-02-24T12:23:06.646Z,9.20
2018-02-24T12:25:32.837Z,9.80
2018-02-24T12:27:58.978Z,9.40
2018-02-24T12:30:25.440Z,9.33
2018-02-24T12:32:51.667Z,9.40
2018-02-24T12:35:17.978Z,9.83
2018-02-24T12:37:44.606Z,9.90
2018-02-24T12:40:11.450Z,9.33
2018-02-24T12:42:37.678Z,11.07
2018-02-24T12:45:04.040Z,9.63
2018-02-24T12:47:30.875Z,8.90
2018-02-24T12:49:57.075Z,9.70
2018-02-24T12:52:23.276Z,10.30
2018-02-24T12:54:49.410Z,8.93
2018-02-24T12:57:15.622Z,10.17
2018-02-24T12:59:41.821Z,9.70
2018-02-24T13:02:08.163Z,8.63
2018-02-24T13:04:34.988Z,8.50
2018-02-24T13:07:01.209Z,8.47
2018-02-24T13:09:28.607Z,9.83
2018-02-24T13:11:54.885Z,8.80
2018-02-24T13:14:21.794Z,9.43
2018-02-24T13:16:49.415Z,8.90
2018-02-24T13:19:16.468Z,7.57
2018-02-24T13:21:42.684Z,9.77
2018-02-24T13:24:10.175Z,7.60
2018-02-24T13:26:36.762Z,8.13
2018-02-24T13:29:03.047Z,9.40
2018-02-24T13:31:30.926Z,9.80
2018-02-24T13:33:57.111Z,8.77
2018-02-24T13:36:23.592Z,8.47
2018-02-24T13:38:49.903Z,8.60
2018-02-24T13:41:18.151Z,7.47
2018-02-24T13:43:44.587Z,7.27
2018-02-24T13:46:13.130Z,7.80
2018-02-24T13:48:40.724Z,8.73
2018-02-24T13:51:07.359Z,8.67
2018-02-24T13:53:34.538Z,8.00
2018-02-24T13:56:00.920Z,7.80
2018-02-24T13:58:28.206Z,9.17
2018-02-24T14:00:54.549Z,10.07
2018-02-24T14:03:21.423Z,8.90
2018-02-24T14:05:47.862Z,8.80
2018-02-24T14:08:14.648Z,9.70
2018-02-24T14:10:40.928Z,9.70
2018-02-24T14:13:07.299Z,8.80
2018-02-24T14:15:33.550Z,10.27
2018-02-24T14:18:00.023Z,9.90
2018-02-24T14:20:26.823Z,9.20
2018-02-24T14:22:54.135Z,10.50
2018-02-24T14:25:20.351Z,9.47
2018-02-24T14:27:46.572Z,8.50
2018-02-24T14:30:12.848Z,10.03
2018-02-24T14:32:39.091Z,8.52
2018-02-24T14:35:05.213Z,9.85
2018-02-24T14:37:31.954Z,10.02
2018-02-24T14:39:58.234Z,8.77
2018-02-24T14:42:25.228Z,8.40
2018-02-24T14:44:52.134Z,9.05
2018-02-24T14:47:19.730Z,9.67
2018-02-24T14:49:46.006Z,10.07
2018-02-24T14:52:13.106Z,7.97
2018-02-24T14:54:39.295Z,9.55
2018-02-24T14:57:05.603Z,9.18
2018-02-24T14:59:31.777Z,10.83
2018-02-24T15:01:57.920Z,10.43
2018-02-24T15:04:24.085Z,9.93
2018-02-24T15:06:50.216Z,10.68
2018-02-24T15:09:16.498Z,9.57
2018-02-24T15:11:44.472Z,9.57
2018-02-24T15:14:10.731Z,10.55
2018-02-24T15:16:36.941Z,10.45
2018-02-24T15:19:04.702Z,10.68
2018-02-24T15:21:34.171Z,11.55
2018-02-24T15:24:00.320Z,12.43
2018-02-24T15:26:26.473Z,12.98
2018-02-24T15:28:52.720Z,12.95
2018-02-24T15:31:19.421Z,13.52
2018-02-24T15:33:48.021Z,14.18
2018-02-24T15:36:15.416Z,13.93
2018-02-24T15:38:41.774Z,12.23
2018-02-24T15:41:09.465Z,13.38
2018-02-24T15:43:36.082Z,12.50
2018-02-24T15:46:02.599Z,13.07
2018-02-24T15:48:29.710Z,12.43
2018-02-24T15:50:55.994Z,11.95
2018-02-24T15:53:22.282Z,13.57
2018-02-24T15:55:48.497Z,13.15
2018-02-24T15:58:14.690Z,13.68
2018-02-24T16:00:42.207Z,13.40
2018-02-24T16:03:09.097Z,13.57
2018-02-24T16:05:36.193Z,12.68
2018-02-24T16:08:03.539Z,15.05
2018-02-24T16:10:30.469Z,14.05
2018-02-24T16:12:56.657Z,13.45
2018-02-24T16:15:24.278Z,13.75
2018-02-24T16:17:50.623Z,14.10
2018-02-24T16:20:17.627Z,13.48
2018-02-24T16:22:43.785Z,13.80
2018-02-24T16:25:11.707Z,14.13
2018-02-24T16:27:38.824Z,14.07
2018-02-24T16:30:06.167Z,14.90
2018-02-24T16:32:32.356Z,14.07
2018-02-24T16:34:58.863Z,13.80
2018-02-24T16:37:26.176Z,13.20
2018-02-24T16:39:52.755Z,12.05
2018-02-24T16:42:19.003Z,12.10
2018-02-24T16:44:45.966Z,13.75
2018-02-24T16:47:12.232Z,12.60
2018-02-24T16:49:41.202Z,13.23
2018-02-24T16:52:07.791Z,12.80
2018-02-24T16:54:34.907Z,12.90
2018-02-24T16:57:01.650Z,12.95
2018-02-24T16:59:27.872Z,12.00
2018-02-24T17:01:53.982Z,12.70
2018-02-24T17:04:20.075Z,13.10
2018-02-24T17:06:46.239Z,11.85
2018-02-24T17:09:13.090Z,11.23
2018-02-24T17:11:46.754Z,12.50
2018-02-24T17:14:12.880Z,11.07
2018-02-24T17:16:39.610Z,10.68
2018-02-24T17:19:06.140Z,9.88
2018-02-24T17:21:33.013Z,9.25
2018-02-24T17:23:59.438Z,10.10
2018-02-24T17:26:25.835Z,8.25
2018-02-24T17:28:52.723Z,8.93
2018-02-24T17:31:18.870Z,8.68
2018-02-24T17:33:45.349Z,10.23
2018-02-24T17:36:11.538Z,8.82
2018-02-24T17:38:37.930Z,8.93
2018-02-24T17:41:04.754Z,8.73
2018-02-24T17:43:30.895Z,8.45
2018-02-24T17:45:57.155Z,9.48
2018-02-24T17:48:25.880Z,9.93
2018-02-24T17:50:52.101Z,8.60
2018-02-24T17:53:19.433Z,7.40
2018-02-24T17:55:46.309Z,7.40
2018-02-24T17:58:12.531Z,6.05
2018-02-24T18:00:39.454Z,8.40
2018-02-24T18:03:06.665Z,6.68
2018-02-24T18:05:33.385Z,6.97
2018-02-24T18:07:59.538Z,6.15
2018-02-24T18:10:27.613Z,6.37
2018-02-24T18:12:53.833Z,6.75
2018-02-24T18:15:20.025Z,6.65
2018-02-24T18:17:46.408Z,6.20
2018-02-24T18:20:12.553Z,6.07
2018-02-24T18:22:38.682Z,6.10
2018-02-24T18:25:05.527Z,5.40
2018-02-24T18:27:31.778Z,6.85
2018-02-24T18:30:00.241Z,5.15
2018-02-24T18:32:27.608Z,5.93
2018-02-24T18:34:54.347Z,5.45
2018-02-24T18:37:21.426Z,5.12
2018-02-24T18:39:48.028Z,5.70
2018-02-24T18:42:14.109Z,5.62
2018-02-24T18:44:40.414Z,4.82
2018-02-24T18:47:06.598Z,5.28
2018-02-24T18:49:32.662Z,4.70
2018-02-24T18:52:00.493Z,5.18
2018-02-24T18:54:26.932Z,4.20
2018-02-24T18:56:53.093Z,4.32
2018-02-24T18:59:19.288Z,5.28
2018-02-24T19:01:46.008Z,4.57
2018-02-24T19:04:12.166Z,4.30
2018-02-24T19:06:38.303Z,4.30
2018-02-24T19:09:04.289Z,4.28
2018-02-24T19:11:31.272Z,4.70
2018-02-24T19:13:57.427Z,4.05
2018-02-24T19:16:23.500Z,4.28
2018-02-24T19:21:22.413Z,3.83
2018-02-24T19:23:48.547Z,4.37
2018-02-24T19:26:14.972Z,4.47
2018-02-24T19:28:41.080Z,4.47
2018-02-24T19:31:07.125Z,3.72
2018-02-24T19:33:33.960Z,4.35
2018-02-24T19:36:00.004Z,3.80
2018-02-24T19:38:26.872Z,3.83
2018-02-24T19:40:53.172Z,3.47
2018-02-24T19:43:20.188Z,3.95
2018-02-24T19:45:46.359Z,3.85
2018-02-24T19:48:12.555Z,4.20
2018-02-24T19:50:38.661Z,4.35
2018-02-24T19:53:04.795Z,4.45
2018-02-24T19:55:32.103Z,4.80
2018-02-24T19:57:58.197Z,4.97
2018-02-24T20:00:25.049Z,4.62
2018-02-24T20:02:51.311Z,4.93
2018-02-24T20:05:17.401Z,4.72
2018-02-24T20:07:43.396Z,5.72
2018-02-24T20:10:09.474Z,4.82
2018-02-24T20:12:35.649Z,5.40
2018-02-24T20:15:01.792Z,5.15
2018-02-24T20:17:28.930Z,4.35
2018-02-24T20:19:57.095Z,4.07
2018-02-24T20:22:23.221Z,3.50
2018-02-24T20:24:49.270Z,4.25
2018-02-24T20:27:15.401Z,5.10
2018-02-24T20:29:41.400Z,4.62
2018-02-24T20:32:07.754Z,3.87
2018-02-24T20:34:33.818Z,3.95
2018-02-24T20:37:00.667Z,4.50
2018-02-24T20:39:26.754Z,4.40
2018-02-24T20:41:53.182Z,4.30
2018-02-24T20:44:20.161Z,4.50
2018-02-24T20:46:46.313Z,4.82
2018-02-24T20:49:12.426Z,4.53
2018-02-24T20:51:38.458Z,5.32
2018-02-24T20:54:05.035Z,4.80
2018-02-24T20:56:31.145Z,4.82
2018-02-24T20:58:57.999Z,4.55
2018-02-24T21:01:24.927Z,6.65
2018-02-24T21:03:51.672Z,5.90
2018-02-24T21:06:18.647Z,5.00
2018-02-24T21:08:45.408Z,4.55
2018-02-24T21:11:12.370Z,4.72
2018-02-24T21:13:38.501Z,4.37
2018-02-24T21:16:04.709Z,4.28
2018-02-24T21:18:30.933Z,4.82
2018-02-24T21:20:57.106Z,4.35
2018-02-24T21:23:23.166Z,5.03
2018-02-24T21:25:49.635Z,5.22
2018-02-24T21:28:17.125Z,4.70
2018-02-24T21:30:43.646Z,4.90
2018-02-24T21:33:09.755Z,5.20
2018-02-24T21:35:36.799Z,4.60
2018-02-24T21:38:03.366Z,4.50
2018-02-24T21:40:30.156Z,4.68
2018-02-24T21:42:56.655Z,5.43
2018-02-24T21:45:23.492Z,4.50
2018-02-24T21:47:49.570Z,4.15
2018-02-24T21:50:15.687Z,4.50
2018-02-24T21:52:41.807Z,4.85
2018-02-24T21:55:08.978Z,5.22
2018-02-24T21:57:35.071Z,4.95
2018-02-24T22:00:01.257Z,5.20
2018-02-24T22:02:27.378Z,5.28
2018-02-24T22:04:54.759Z,4.30
2018-02-24T22:07:20.960Z,5.53
2018-02-24T22:09:47.401Z,5.22
2018-02-24T22:12:13.563Z,4.40
2018-02-24T22:14:39.701Z,5.22
2018-02-24T22:17:05.928Z,5.20
2018-02-24T22:19:32.051Z,6.25
2018-02-24T22:21:58.127Z,4.90
2018-02-24T22:24:25.222Z,5.15
2018-02-24T22:26:51.536Z,6.10
2018-02-24T22:29:17.680Z,5.15
2018-02-24T22:31:44.913Z,5.28
2018-02-24T22:34:12.091Z,5.20
2018-02-24T22:36:39.212Z,5.50
2018-02-24T22:39:07.895Z,6.18
2018-02-24T22:41:34.839Z,6.20
2018-02-24T22:44:03.187Z,7.07
2018-02-24T22:46:30.194Z,5.65
2018-02-24T22:49:00.383Z,6.32
2018-02-24T22:51:26.621Z,6.32
2018-02-24T22:53:53.674Z,6.85
2018-02-24T22:56:20.763Z,6.22
2018-02-24T22:58:46.867Z,6.37
2018-02-24T23:01:14.746Z,6.55
2018-02-24T23:03:41.139Z,6.50
2018-02-24T23:06:07.370Z,6.22
2018-02-24T23:08:33.502Z,6.55
2018-02-24T23:11:00.550Z,6.25
2018-02-24T23:13:26.773Z,6.18
2018-02-24T23:15:54.078Z,6.68
2018-02-24T23:18:20.561Z,6.60
2018-02-24T23:20:48.350Z,5.95
2018-02-24T23:23:14.784Z,7.15
2018-02-24T23:25:42.026Z,6.05
2018-02-24T23:28:09.484Z,6.70
2018-02-24T23:30:36.281Z,5.90
2018-02-24T23:33:02.832Z,5.45
2018-02-24T23:35:29.063Z,6.10
2018-02-24T23:37:55.246Z,6.65
2018-02-24T23:40:22.181Z,6.72
2018-02-24T23:42:48.328Z,6.12
2018-02-24T23:45:15.260Z,6.70
2018-02-24T23:47:42.243Z,6.75
2018-02-24T23:50:08.343Z,6.28
2018-02-24T23:52:35.235Z,6.22
2018-02-24T23:55:01.372Z,7.78
2018-02-24T23:57:27.850Z,7.47
2018-02-24T23:59:54.127Z,6.78
